Nearby METAR Reports

 

KEDC - Austin Exec, Texas, USA
Distance from station: SSE 10mi, 17km
Updated: Sun, 24-Mar-2019 1:35am CDT
Overcast
Overcast
 Wind from calm
Wind: Calm
Temperature: 64°F , 18°C
Dew Point: 61°F , 16°C
Humidity: 88%
Barometer: 30.09 inHg , 1019 hPa
Clouds: Overcast
Visibility: 10 miles , 16 km
Cloud details: Mostly cloudy 1400 ft
Overcast 2300 ft
2019/03/24 06:35 KEDC 240635Z AUTO 00000KT 10SM BKN014 OVC023 18/16 A3009 RMK AO2
KGTU - Georgetown, Texas, USA
Distance from station: NNW 11mi, 17km
Updated: Sun, 24-Mar-2019 1:19am CDT
Overcast
Overcast
 Wind from S
Wind: S 13 mph , 20 km/h
Temperature: 66°F , 19°C
Dew Point: 61°F , 16°C
Humidity: 83%
Barometer: 30.09 inHg , 1019 hPa
Clouds: Overcast
Visibility: 10 miles , 16 km
Cloud details: Overcast 1400 ft
2019/03/24 06:19 KGTU 240619Z 17011KT 10SM OVC014 19/16 A3009 RMK AO2
 
KATT - Austin/Mabry, Texas, USA
Distance from station: SSW 18mi, 30km
Updated: Sun, 24-Mar-2019 1:22am CDT
Overcast
Overcast
 Wind from SSE
Wind: SSE 3 mph , 6 km/h
Temperature: 66°F , 19°C
Dew Point: 61°F , 16°C
Humidity: 83%
Barometer: 30.08 inHg , 1018.6 hPa
Clouds: Overcast
Visibility: 10 miles , 16 km
Cloud details: Mostly cloudy 1500 ft
Overcast 2000 ft
2019/03/24 06:22 KATT 240622Z AUTO 16003KT 10SM BKN015 OVC020 19/16 A3008 RMK AO2 T01890156
KRYW - Lago Vista, Texas, USA
Distance from station: W 22mi, 35km
Updated: Sun, 24-Mar-2019 1:35am CDT
Rain, Overcast
Rain, Overcast
 Wind from S
Wind: S 9 mph , 15 km/h
Temperature: 64°F , 18°C
Dew Point: 61°F , 16°C
Humidity: 88%
Barometer: 30.07 inHg , 1018.3 hPa
Summary: Rain
Clouds: Overcast
Visibility: 10 miles , 16 km
Cloud details: Overcast 1200 ft
2019/03/24 06:35 KRYW 240635Z AUTO 18008KT 10SM RA OVC012 18/16 A3007 RMK AO2 T01790161
 
KAUS - Austin, Texas, USA
Distance from station: S 25mi, 41km
Updated: Sun, 24-Mar-2019 1:10am CDT
Overcast
Overcast
 Wind from S
Wind: S 7 mph , 11 km/h
Temperature: 66°F , 19°C
Dew Point: 63°F , 17°C
Humidity: 88%
Barometer: 30.07 inHg , 1018.3 hPa
Clouds: Overcast
Visibility: 10 miles , 16 km
Cloud details: Mostly cloudy 1300 ft
Overcast 2100 ft
2019/03/24 06:10 KAUS 240610Z 18006KT 10SM BKN013 OVC021 19/17 A3007 RMK AO2 T01890167 $
KILE - Killeen Muni, Texas, USA
Distance from station: N 36mi, 58km
Updated: Sun, 24-Mar-2019 12:56am CDT
Overcast
Overcast
 Wind from S
Wind: S 13 mph , 20 km/h
Temperature: 66°F , 19°C
Dew Point: 61°F , 16°C
Humidity: 83%
Barometer: 30.06 inHg , 1017.9 hPa
Clouds: Overcast
Visibility: 10 miles , 16 km
Cloud details: Mostly cloudy 1900 ft
Overcast 2400 ft
2019/03/24 05:56 KILE 240556Z AUTO 18011KT 10SM BKN019 OVC024 19/16 A3006 RMK AO2 SLP190 T01890161 10211 20189 402220156 53007
 
KGRK - Gray/Ft Hood, Texas, USA
Distance from station: NNW 38mi, 62km
Updated: Sun, 24-Mar-2019 1:18am CDT
Overcast
Overcast
 Wind from S
Wind: S 17 mph , 28 km/h, Gust: 23 mph , 37 km/h
Temperature: 66°F , 19°C
Dew Point: 59°F , 15°C
Humidity: 78%
Barometer: 30.04 inHg , 1017.3 hPa
Clouds: Overcast
Visibility: 10 miles , 16 km
Cloud details: Partly cloudy 1800 ft
Overcast 2900 ft
2019/03/24 06:18 KGRK 240618Z AUTO 17015G20KT 10SM SCT018 OVC029 19/15 A3004 RMK AO2 CIG 018V029 CIG 018 RWY33 SLP166
KBMQ - Burnet, Texas, USA
Distance from station: WNW 39mi, 64km
Updated: Sun, 24-Mar-2019 12:53am CDT
Overcast
Overcast
 Wind from S
Wind: S 10 mph , 17 km/h, Gust: 18 mph , 30 km/h
Temperature: 66°F , 19°C
Dew Point: 61°F , 16°C
Humidity: 83%
Barometer: 30.08 inHg , 1018.6 hPa
Clouds: Overcast
Visibility: 10 miles , 16 km
Cloud details: Overcast 2500 ft
2019/03/24 05:53 KBMQ 240553Z AUTO 17009G16KT 10SM OVC025 19/16 A3008 RMK AO2 SLP172 T01890156 10211 20183 402170156 51005
 
KHLR - Ft Hood/Killeen, Texas, USA
Distance from station: N 41mi, 66km
Updated: Sun, 24-Mar-2019 12:58am CDT
Overcast
Overcast
 Wind from S
Wind: S 13 mph , 20 km/h
Temperature: 66°F , 19°C
Dew Point: 61°F , 16°C
Humidity: 83%
Barometer: 30.02 inHg , 1016.6 hPa
Clouds: Overcast
Visibility: 10 miles , 16 km
Cloud details: Overcast 1700 ft
2019/03/24 05:58 KHLR 240558Z AUTO 17011KT 10SM OVC017 19/16 A3002 RMK AO2 SLP158 T01900157 10211 20186 402230151 50007
KTPL - Temple/Miller, Texas, USA
Distance from station: NNE 42mi, 68km
Updated: Sun, 24-Mar-2019 12:51am CDT

 Wind from SSE
Wind: SSE 17 mph , 28 km/h
Temperature: 66°F , 19°C
Dew Point: 63°F , 17°C
Humidity: 88%
Barometer: 30.06 inHg , 1017.9 hPa
Visibility: 10 miles , 16 km
2019/03/24 05:51 KTPL 240551Z AUTO 16015KT 10SM 19/17 A3006 RMK AO2 SLP186 60001 T01890167 10211 20183 402330150 53006 $
 
KT35 - Cameron, Texas, USA
Distance from station: ENE 45mi, 72km
Updated: Sun, 24-Mar-2019 1:35am CDT
Overcast
Overcast
 Wind from S
Wind: S 6 mph , 9 km/h
Temperature: 66°F , 19°C
Dew Point: 61°F , 16°C
Humidity: 83%
Barometer: 30.08 inHg , 1018.6 hPa
Clouds: Overcast
Visibility: 10 miles , 16 km
Cloud details: Overcast 1500 ft
2019/03/24 06:35 KT35 240635Z AUTO 17005KT 10SM OVC015 19/16 A3008 RMK AO2 T01850155
KDZB - Horseshoe Bay, Texas, USA
Distance from station: W 45mi, 73km
Updated: Sun, 24-Mar-2019 1:35am CDT
Mostly cloudy
Mostly cloudy
 Wind from S
Wind: S 6 mph , 9 km/h
Temperature: 66°F , 19°C
Dew Point: 61°F , 16°C
Humidity: 83%
Barometer: 30.06 inHg , 1017.9 hPa
Clouds: Mostly cloudy
Visibility: 10 miles , 16 km
Cloud details: Mostly cloudy 1700 ft
Mostly cloudy 2700 ft
Mostly cloudy 3200 ft
2019/03/24 06:35 KDZB 240635Z AUTO 17005KT 10SM BKN017 BKN027 BKN032 19/16 A3006 RMK AO2 T01860156
 
KGYB - Giddings-Lee, Texas, USA
Distance from station: SE 45mi, 73km
Updated: Sun, 24-Mar-2019 1:35am CDT
Overcast
Overcast
 Wind from S
Wind: S 6 mph , 9 km/h
Temperature: 68°F , 20°C
Dew Point: 64°F , 18°C
Humidity: 88%
Barometer: 30.08 inHg , 1018.6 hPa
Clouds: Overcast
Visibility: 10 miles , 16 km
Cloud details: Overcast 1500 ft
2019/03/24 06:35 KGYB 240635Z AUTO 17005KT 10SM OVC015 20/18 A3008 RMK AO2 T01960176
KHYI - San Marcos, Texas, USA
Distance from station: SSW 48mi, 78km
Updated: Sun, 24-Mar-2019 12:56am CDT
Overcast
Overcast
 Wind from SSE
Wind: SSE 9 mph , 15 km/h
Temperature: 66°F , 19°C
Dew Point: 63°F , 17°C
Humidity: 88%
Barometer: 30.07 inHg , 1018.3 hPa
Clouds: Overcast
Visibility: 10 miles , 16 km
Cloud details: Overcast 1400 ft
2019/03/24 05:56 KHYI 240556Z AUTO 16008KT 10SM OVC014 19/17 A3007 RMK AO2 SLP175 T01890167 10217 20189 402440156 58005
 
KLZZ - Lampasas, Texas, USA
Distance from station: NW 52mi, 84km
Updated: Sun, 24-Mar-2019 1:35am CDT
Overcast
Overcast
 Wind from S
Wind: S 8 mph , 13 km/h
Temperature: 64°F , 18°C
Dew Point: 59°F , 15°C
Humidity: 83%
Barometer: 30.04 inHg , 1017.3 hPa
Clouds: Overcast
Visibility: 10 miles , 16 km
Cloud details: Overcast 3000 ft
2019/03/24 06:35 KLZZ 240635Z AUTO 18007KT 10SM OVC030 18/15 A3004 RMK AO2 T01810152
KRWV - Caldwell, Texas, USA
Distance from station: E 54mi, 87km
Updated: Sun, 24-Mar-2019 1:35am CDT
Overcast
Overcast
 Wind from S
Wind: S 7 mph , 11 km/h
Temperature: 63°F , 17°C
Dew Point: 59°F , 15°C
Humidity: 88%
Barometer: 30.09 inHg , 1019 hPa
Clouds: Overcast
Visibility: 10 miles , 16 km
Cloud details: Mostly cloudy 1500 ft
Overcast 2100 ft
2019/03/24 06:35 KRWV 240635Z AUTO 17006KT 10SM BKN015 OVC021 17/15 A3009 RMK AO2 T01710155
 
K3T5 - La Grange, Texas, USA
Distance from station: SE 59mi, 95km
Updated: Sun, 24-Mar-2019 1:35am CDT
Overcast
Overcast
 Wind from SSE
Wind: SSE 5 mph , 7 km/h
Temperature: 66°F , 19°C
Dew Point: 64°F , 18°C
Humidity: 94%
Barometer: 30.06 inHg , 1017.9 hPa
Clouds: Overcast
Visibility: 10 miles , 16 km
Cloud details: Mostly cloudy 1400 ft
Overcast 1900 ft
2019/03/24 06:35 K3T5 240635Z AUTO 15004KT 10SM BKN014 OVC019 19/18 A3006 RMK AO2 T01880178
KGOP - Gatesville, Texas, USA
Distance from station: N 61mi, 99km
Updated: Sun, 24-Mar-2019 1:35am CDT
Overcast
Overcast
 Wind from SSE
Wind: SSE 10 mph , 17 km/h
Temperature: 66°F , 19°C
Dew Point: 61°F , 16°C
Humidity: 83%
Barometer: 30.06 inHg , 1017.9 hPa
Clouds: Overcast
Visibility: 10 miles , 16 km
Cloud details: Mostly cloudy 1900 ft
Overcast 2400 ft
2019/03/24 06:35 KGOP 240635Z AUTO 16009KT 10SM BKN019 OVC024 19/16 A3006 RMK AO2
 
KLHB - Hearne Muni, Texas, USA
Distance from station: ENE 63mi, 101km
Updated: Sun, 24-Mar-2019 1:35am CDT
Clear
Clear
 Wind from SE
Wind: SE 7 mph , 11 km/h
Temperature: 63°F , 17°C
Dew Point: 61°F , 16°C
Humidity: 94%
Barometer: 30.09 inHg , 1019 hPa
Clouds: Clear
Visibility: 10 miles , 16 km
2019/03/24 06:35 KLHB 240635Z AUTO 13006KT 10SM CLR 17/16 A3009 RMK AO2 T01680157
KBAZ - New Braunfels, Texas, USA
Distance from station: SSW 63mi, 102km
Updated: Sun, 24-Mar-2019 1:48am CDT
Overcast
Overcast
 Wind from S
Wind: S 10 mph , 17 km/h
Temperature: 66°F , 19°C
Dew Point: 63°F , 17°C
Humidity: 88%
Barometer: 30.05 inHg , 1017.6 hPa
Clouds: Overcast
Visibility: 10 miles , 16 km
Cloud details: Mostly cloudy 1400 ft
Overcast 2000 ft
2019/03/24 06:48 KBAZ 240648Z AUTO 18009KT 10SM BKN014 OVC020 19/17 A3005 RMK AO2